sensor_id;sensor_type;location;lat;lon;timestamp;temperature;humidity
68977;SHT31;56029;52.568;13.588;2023-11-18T00:01:56;5.13;99.54
68977;SHT31;56029;52.568;13.588;2023-11-18T00:04:22;5.13;99.42
68977;SHT31;56029;52.568;13.588;2023-11-18T00:06:47;5.16;99.53
68977;SHT31;56029;52.568;13.588;2023-11-18T00:09:13;5.15;99.40
68977;SHT31;56029;52.568;13.588;2023-11-18T00:11:42;5.19;99.48
68977;SHT31;56029;52.568;13.588;2023-11-18T00:14:09;5.16;99.56
68977;SHT31;56029;52.568;13.588;2023-11-18T00:16:34;5.15;99.59
68977;SHT31;56029;52.568;13.588;2023-11-18T00:19:00;5.16;99.67
68977;SHT31;56029;52.568;13.588;2023-11-18T00:21:26;5.17;99.64
68977;SHT31;56029;52.568;13.588;2023-11-18T00:23:51;5.12;99.68
68977;SHT31;56029;52.568;13.588;2023-11-18T00:26:17;5.13;99.66
68977;SHT31;56029;52.568;13.588;2023-11-18T00:28:42;5.12;99.40
68977;SHT31;56029;52.568;13.588;2023-11-18T00:31:08;5.15;99.51
68977;SHT31;56029;52.568;13.588;2023-11-18T00:33:33;5.15;99.38
68977;SHT31;56029;52.568;13.588;2023-11-18T00:35:59;5.13;99.51
68977;SHT31;56029;52.568;13.588;2023-11-18T00:38:24;5.15;99.37
68977;SHT31;56029;52.568;13.588;2023-11-18T00:40:50;5.12;99.38
68977;SHT31;56029;52.568;13.588;2023-11-18T00:43:15;5.17;99.44
68977;SHT31;56029;52.568;13.588;2023-11-18T00:45:41;5.15;99.18
68977;SHT31;56029;52.568;13.588;2023-11-18T00:48:06;5.13;99.19
68977;SHT31;56029;52.568;13.588;2023-11-18T00:50:32;5.20;99.36
68977;SHT31;56029;52.568;13.588;2023-11-18T00:52:57;5.17;99.15
68977;SHT31;56029;52.568;13.588;2023-11-18T00:55:23;5.17;99.39
68977;SHT31;56029;52.568;13.588;2023-11-18T00:57:48;5.13;99.21
68977;SHT31;56029;52.568;13.588;2023-11-18T01:00:15;5.13;99.07
68977;SHT31;56029;52.568;13.588;2023-11-18T01:02:41;5.13;99.14
68977;SHT31;56029;52.568;13.588;2023-11-18T01:05:07;5.15;99.20
68977;SHT31;56029;52.568;13.588;2023-11-18T01:07:33;5.15;99.22
68977;SHT31;56029;52.568;13.588;2023-11-18T01:09:58;5.16;99.36
68977;SHT31;56029;52.568;13.588;2023-11-18T01:12:24;5.16;99.25
68977;SHT31;56029;52.568;13.588;2023-11-18T01:14:49;5.17;99.02
68977;SHT31;56029;52.568;13.588;2023-11-18T01:17:15;5.19;99.16
68977;SHT31;56029;52.568;13.588;2023-11-18T01:19:40;5.16;99.31
68977;SHT31;56029;52.568;13.588;2023-11-18T01:22:06;5.19;99.32
68977;SHT31;56029;52.568;13.588;2023-11-18T01:24:32;5.20;99.06
68977;SHT31;56029;52.568;13.588;2023-11-18T01:26:58;5.16;99.22
68977;SHT31;56029;52.568;13.588;2023-11-18T01:29:23;5.13;99.28
68977;SHT31;56029;52.568;13.588;2023-11-18T01:31:49;5.12;99.35
68977;SHT31;56029;52.568;13.588;2023-11-18T01:34:14;5.09;99.38
68977;SHT31;56029;52.568;13.588;2023-11-18T01:36:40;5.10;99.41
68977;SHT31;56029;52.568;13.588;2023-11-18T01:39:05;5.09;99.47
68977;SHT31;56029;52.568;13.588;2023-11-18T01:41:31;5.07;99.45
68977;SHT31;56029;52.568;13.588;2023-11-18T01:43:56;5.09;99.52
68977;SHT31;56029;52.568;13.588;2023-11-18T01:46:22;5.07;99.47
68977;SHT31;56029;52.568;13.588;2023-11-18T01:48:47;5.12;99.69
68977;SHT31;56029;52.568;13.588;2023-11-18T01:51:13;5.07;99.47
68977;SHT31;56029;52.568;13.588;2023-11-18T01:53:39;5.09;99.59
68977;SHT31;56029;52.568;13.588;2023-11-18T01:56:07;5.07;99.51
68977;SHT31;56029;52.568;13.588;2023-11-18T01:58:33;5.06;99.38
68977;SHT31;56029;52.568;13.588;2023-11-18T02:00:59;5.10;99.53
68977;SHT31;56029;52.568;13.588;2023-11-18T02:03:25;5.09;99.48
68977;SHT31;56029;52.568;13.588;2023-11-18T02:05:50;5.03;99.52
68977;SHT31;56029;52.568;13.588;2023-11-18T02:08:16;5.00;99.61
68977;SHT31;56029;52.568;13.588;2023-11-18T02:10:49;5.03;99.59
68977;SHT31;56029;52.568;13.588;2023-11-18T02:13:24;4.97;99.38
68977;SHT31;56029;52.568;13.588;2023-11-18T02:15:58;4.97;99.57
68977;SHT31;56029;52.568;13.588;2023-11-18T02:18:25;5.01;99.50
68977;SHT31;56029;52.568;13.588;2023-11-18T02:20:52;4.99;99.57
68977;SHT31;56029;52.568;13.588;2023-11-18T02:23:19;4.99;99.53
68977;SHT31;56029;52.568;13.588;2023-11-18T02:25:47;5.00;99.56
68977;SHT31;56029;52.568;13.588;2023-11-18T02:28:13;5.00;99.56
68977;SHT31;56029;52.568;13.588;2023-11-18T02:30:40;4.97;99.33
68977;SHT31;56029;52.568;13.588;2023-11-18T02:33:18;4.99;99.30
68977;SHT31;56029;52.568;13.588;2023-11-18T02:35:50;4.97;99.23
68977;SHT31;56029;52.568;13.588;2023-11-18T02:38:19;4.93;99.27
68977;SHT31;56029;52.568;13.588;2023-11-18T02:40:48;4.95;99.17
68977;SHT31;56029;52.568;13.588;2023-11-18T02:43:17;4.92;98.93
68977;SHT31;56029;52.568;13.588;2023-11-18T02:45:44;4.95;99.03
68977;SHT31;56029;52.568;13.588;2023-11-18T02:48:09;4.93;98.88
68977;SHT31;56029;52.568;13.588;2023-11-18T02:50:35;4.96;99.02
68977;SHT31;56029;52.568;13.588;2023-11-18T02:53:01;4.89;99.00
68977;SHT31;56029;52.568;13.588;2023-11-18T02:55:26;4.93;99.04
68977;SHT31;56029;52.568;13.588;2023-11-18T02:57:52;4.90;99.18
68977;SHT31;56029;52.568;13.588;2023-11-18T03:00:18;4.93;99.27
68977;SHT31;56029;52.568;13.588;2023-11-18T03:02:44;4.93;99.13
68977;SHT31;56029;52.568;13.588;2023-11-18T03:05:09;4.92;99.16
68977;SHT31;56029;52.568;13.588;2023-11-18T03:07:35;4.86;99.21
68977;SHT31;56029;52.568;13.588;2023-11-18T03:10:00;4.92;99.19
68977;SHT31;56029;52.568;13.588;2023-11-18T03:12:26;4.95;99.27
68977;SHT31;56029;52.568;13.588;2023-11-18T03:14:51;4.92;99.32
68977;SHT31;56029;52.568;13.588;2023-11-18T03:17:17;4.93;99.35
68977;SHT31;56029;52.568;13.588;2023-11-18T03:19:43;4.95;99.36
68977;SHT31;56029;52.568;13.588;2023-11-18T03:22:08;4.93;99.32
68977;SHT31;56029;52.568;13.588;2023-11-18T03:24:34;4.92;99.26
68977;SHT31;56029;52.568;13.588;2023-11-18T03:26:59;4.95;99.33
68977;SHT31;56029;52.568;13.588;2023-11-18T03:29:25;4.95;99.51
68977;SHT31;56029;52.568;13.588;2023-11-18T03:31:50;4.92;99.41
68977;SHT31;56029;52.568;13.588;2023-11-18T03:34:16;4.93;99.49
68977;SHT31;56029;52.568;13.588;2023-11-18T03:36:44;4.96;99.59
68977;SHT31;56029;52.568;13.588;2023-11-18T03:39:10;4.92;99.62
68977;SHT31;56029;52.568;13.588;2023-11-18T03:41:35;4.89;99.63
68977;SHT31;56029;52.568;13.588;2023-11-18T03:44:01;4.93;99.66
68977;SHT31;56029;52.568;13.588;2023-11-18T03:46:26;4.92;99.62
68977;SHT31;56029;52.568;13.588;2023-11-18T03:48:52;4.90;99.56
68977;SHT31;56029;52.568;13.588;2023-11-18T03:51:17;4.89;99.54
68977;SHT31;56029;52.568;13.588;2023-11-18T03:53:43;4.89;99.71
68977;SHT31;56029;52.568;13.588;2023-11-18T03:56:08;4.89;99.60
68977;SHT31;56029;52.568;13.588;2023-11-18T03:58:34;4.86;99.51
68977;SHT31;56029;52.568;13.588;2023-11-18T04:01:01;4.89;99.49
68977;SHT31;56029;52.568;13.588;2023-11-18T04:03:27;4.83;99.45
68977;SHT31;56029;52.568;13.588;2023-11-18T04:05:52;4.92;99.43
68977;SHT31;56029;52.568;13.588;2023-11-18T04:08:18;4.92;99.35
68977;SHT31;56029;52.568;13.588;2023-11-18T04:10:43;4.93;99.31
68977;SHT31;56029;52.568;13.588;2023-11-18T04:13:09;4.89;99.36
68977;SHT31;56029;52.568;13.588;2023-11-18T04:15:34;4.92;99.52
68977;SHT31;56029;52.568;13.588;2023-11-18T04:18:01;4.87;99.36
68977;SHT31;56029;52.568;13.588;2023-11-18T04:20:26;4.92;99.48
68977;SHT31;56029;52.568;13.588;2023-11-18T04:22:52;4.92;99.46
68977;SHT31;56029;52.568;13.588;2023-11-18T04:25:17;4.89;99.40
68977;SHT31;56029;52.568;13.588;2023-11-18T04:27:43;4.90;99.37
68977;SHT31;56029;52.568;13.588;2023-11-18T04:30:08;4.92;99.30
68977;SHT31;56029;52.568;13.588;2023-11-18T04:32:34;4.90;99.38
68977;SHT31;56029;52.568;13.588;2023-11-18T04:35:00;4.90;99.27
68977;SHT31;56029;52.568;13.588;2023-11-18T04:37:26;4.92;99.34
68977;SHT31;56029;52.568;13.588;2023-11-18T04:39:52;4.85;99.44
68977;SHT31;56029;52.568;13.588;2023-11-18T04:42:17;4.82;99.44
68977;SHT31;56029;52.568;13.588;2023-11-18T04:44:43;4.78;99.42
68977;SHT31;56029;52.568;13.588;2023-11-18T04:47:08;4.78;99.57
68977;SHT31;56029;52.568;13.588;2023-11-18T04:49:34;4.76;99.56
68977;SHT31;56029;52.568;13.588;2023-11-18T04:51:59;4.75;99.57
68977;SHT31;56029;52.568;13.588;2023-11-18T04:54:25;4.76;99.55
68977;SHT31;56029;52.568;13.588;2023-11-18T04:56:51;4.76;99.59
68977;SHT31;56029;52.568;13.588;2023-11-18T04:59:16;4.73;99.47
68977;SHT31;56029;52.568;13.588;2023-11-18T05:01:42;4.78;99.47
68977;SHT31;56029;52.568;13.588;2023-11-18T05:04:07;4.73;99.71
68977;SHT31;56029;52.568;13.588;2023-11-18T05:06:33;4.71;99.48
68977;SHT31;56029;52.568;13.588;2023-11-18T05:08:58;4.71;99.38
68977;SHT31;56029;52.568;13.588;2023-11-18T05:11:24;4.65;99.25
68977;SHT31;56029;52.568;13.588;2023-11-18T05:13:49;4.59;99.21
68977;SHT31;56029;52.568;13.588;2023-11-18T05:16:15;4.57;99.13
68977;SHT31;56029;52.568;13.588;2023-11-18T05:18:40;4.54;98.97
68977;SHT31;56029;52.568;13.588;2023-11-18T05:21:06;4.45;99.31
68977;SHT31;56029;52.568;13.588;2023-11-18T05:23:33;4.41;99.56
68977;SHT31;56029;52.568;13.588;2023-11-18T05:25:59;4.36;99.79
68977;SHT31;56029;52.568;13.588;2023-11-18T05:28:24;4.37;99.83
68977;SHT31;56029;52.568;13.588;2023-11-18T05:30:50;4.33;99.96
68977;SHT31;56029;52.568;13.588;2023-11-18T05:33:16;4.25;99.99
68977;SHT31;56029;52.568;13.588;2023-11-18T05:35:42;4.27;99.99
68977;SHT31;56029;52.568;13.588;2023-11-18T05:38:07;4.24;99.99
68977;SHT31;56029;52.568;13.588;2023-11-18T05:40:33;4.25;99.99
68977;SHT31;56029;52.568;13.588;2023-11-18T05:42:58;4.28;99.99
68977;SHT31;56029;52.568;13.588;2023-11-18T05:45:24;4.24;99.99
68977;SHT31;56029;52.568;13.588;2023-11-18T05:47:49;4.25;99.99
68977;SHT31;56029;52.568;13.588;2023-11-18T05:50:15;4.28;99.99
68977;SHT31;56029;52.568;13.588;2023-11-18T05:52:40;4.34;99.99
68977;SHT31;56029;52.568;13.588;2023-11-18T05:55:06;4.40;99.99
68977;SHT31;56029;52.568;13.588;2023-11-18T05:57:32;4.47;99.99
68977;SHT31;56029;52.568;13.588;2023-11-18T05:59:57;4.49;99.99
68977;SHT31;56029;52.568;13.588;2023-11-18T06:02:23;4.51;99.99
68977;SHT31;56029;52.568;13.588;2023-11-18T06:04:48;4.52;99.99
68977;SHT31;56029;52.568;13.588;2023-11-18T06:07:14;4.58;99.99
68977;SHT31;56029;52.568;13.588;2023-11-18T06:09:40;4.55;99.99
68977;SHT31;56029;52.568;13.588;2023-11-18T06:12:06;4.52;99.87
68977;SHT31;56029;52.568;13.588;2023-11-18T06:14:32;4.57;99.81
68977;SHT31;56029;52.568;13.588;2023-11-18T06:16:57;4.58;99.77
68977;SHT31;56029;52.568;13.588;2023-11-18T06:19:23;4.57;99.17
68977;SHT31;56029;52.568;13.588;2023-11-18T06:21:48;4.54;99.10
68977;SHT31;56029;52.568;13.588;2023-11-18T06:24:14;4.58;98.55
68977;SHT31;56029;52.568;13.588;2023-11-18T06:26:39;4.55;98.43
68977;SHT31;56029;52.568;13.588;2023-11-18T06:29:05;4.55;97.82
68977;SHT31;56029;52.568;13.588;2023-11-18T06:31:30;4.57;97.26
68977;SHT31;56029;52.568;13.588;2023-11-18T06:33:56;4.55;97.28
68977;SHT31;56029;52.568;13.588;2023-11-18T06:36:22;4.59;96.89
68977;SHT31;56029;52.568;13.588;2023-11-18T06:38:49;4.65;97.09
68977;SHT31;56029;52.568;13.588;2023-11-18T06:41:16;4.66;97.13
68977;SHT31;56029;52.568;13.588;2023-11-18T06:43:44;4.66;97.35
68977;SHT31;56029;52.568;13.588;2023-11-18T06:46:09;4.68;97.25
68977;SHT31;56029;52.568;13.588;2023-11-18T06:48:35;4.64;97.37
68977;SHT31;56029;52.568;13.588;2023-11-18T06:51:00;4.68;97.48
68977;SHT31;56029;52.568;13.588;2023-11-18T06:53:26;4.61;97.73
68977;SHT31;56029;52.568;13.588;2023-11-18T06:55:51;4.61;97.89
68977;SHT31;56029;52.568;13.588;2023-11-18T06:58:17;4.62;98.17
68977;SHT31;56029;52.568;13.588;2023-11-18T07:00:42;4.61;98.36
68977;SHT31;56029;52.568;13.588;2023-11-18T07:03:08;4.59;98.66
68977;SHT31;56029;52.568;13.588;2023-11-18T07:05:34;4.57;98.72
68977;SHT31;56029;52.568;13.588;2023-11-18T07:07:59;4.54;99.23
68977;SHT31;56029;52.568;13.588;2023-11-18T07:10:25;4.55;99.16
68977;SHT31;56029;52.568;13.588;2023-11-18T07:12:50;4.54;99.20
68977;SHT31;56029;52.568;13.588;2023-11-18T07:15:16;4.57;99.37
68977;SHT31;56029;52.568;13.588;2023-11-18T07:17:42;4.57;99.28
68977;SHT31;56029;52.568;13.588;2023-11-18T07:20:08;4.58;99.34
68977;SHT31;56029;52.568;13.588;2023-11-18T07:22:34;4.58;99.48
68977;SHT31;56029;52.568;13.588;2023-11-18T07:24:59;4.57;99.56
68977;SHT31;56029;52.568;13.588;2023-11-18T07:27:25;4.54;99.56
68977;SHT31;56029;52.568;13.588;2023-11-18T07:29:50;4.47;99.67
68977;SHT31;56029;52.568;13.588;2023-11-18T07:32:16;4.47;99.85
68977;SHT31;56029;52.568;13.588;2023-11-18T07:34:41;4.48;99.81
68977;SHT31;56029;52.568;13.588;2023-11-18T07:37:07;4.41;99.78
68977;SHT31;56029;52.568;13.588;2023-11-18T07:39:32;4.49;99.80
68977;SHT31;56029;52.568;13.588;2023-11-18T07:41:58;4.49;99.72
68977;SHT31;56029;52.568;13.588;2023-11-18T07:44:23;4.47;99.68
68977;SHT31;56029;52.568;13.588;2023-11-18T07:46:49;4.45;99.92
68977;SHT31;56029;52.568;13.588;2023-11-18T07:49:15;4.45;99.95
68977;SHT31;56029;52.568;13.588;2023-11-18T07:51:40;4.47;99.99
68977;SHT31;56029;52.568;13.588;2023-11-18T07:54:06;4.34;99.99
68977;SHT31;56029;52.568;13.588;2023-11-18T07:56:31;4.36;99.99
68977;SHT31;56029;52.568;13.588;2023-11-18T07:58:57;4.45;99.99
68977;SHT31;56029;52.568;13.588;2023-11-18T08:01:22;4.31;99.90
68977;SHT31;56029;52.568;13.588;2023-11-18T08:03:48;4.36;99.99
68977;SHT31;56029;52.568;13.588;2023-11-18T08:06:13;4.37;99.99
68977;SHT31;56029;52.568;13.588;2023-11-18T08:08:39;4.34;99.99
68977;SHT31;56029;52.568;13.588;2023-11-18T08:11:06;4.41;99.99
68977;SHT31;56029;52.568;13.588;2023-11-18T08:13:31;4.34;99.80
68977;SHT31;56029;52.568;13.588;2023-11-18T08:15:57;4.38;99.82
68977;SHT31;56029;52.568;13.588;2023-11-18T08:18:22;4.41;99.69
68977;SHT31;56029;52.568;13.588;2023-11-18T08:20:48;4.40;99.50
68977;SHT31;56029;52.568;13.588;2023-11-18T08:23:13;4.44;99.51
68977;SHT31;56029;52.568;13.588;2023-11-18T08:25:39;4.51;99.52
68977;SHT31;56029;52.568;13.588;2023-11-18T08:28:04;4.51;99.37
68977;SHT31;56029;52.568;13.588;2023-11-18T08:30:30;4.58;99.15
68977;SHT31;56029;52.568;13.588;2023-11-18T08:32:55;4.58;99.02
68977;SHT31;56029;52.568;13.588;2023-11-18T08:35:21;4.62;99.14
68977;SHT31;56029;52.568;13.588;2023-11-18T08:37:47;4.69;99.22
68977;SHT31;56029;52.568;13.588;2023-11-18T08:40:13;4.73;98.87
68977;SHT31;56029;52.568;13.588;2023-11-18T08:42:39;4.73;98.79
68977;SHT31;56029;52.568;13.588;2023-11-18T08:45:05;4.78;98.84
68977;SHT31;56029;52.568;13.588;2023-11-18T08:47:30;4.80;98.60
68977;SHT31;56029;52.568;13.588;2023-11-18T08:49:56;4.85;97.92
68977;SHT31;56029;52.568;13.588;2023-11-18T08:52:21;4.92;97.89
68977;SHT31;56029;52.568;13.588;2023-11-18T08:54:47;4.89;97.65
68977;SHT31;56029;52.568;13.588;2023-11-18T08:57:12;5.00;97.59
68977;SHT31;56029;52.568;13.588;2023-11-18T08:59:38;5.06;97.69
68977;SHT31;56029;52.568;13.588;2023-11-18T09:02:03;5.06;96.71
68977;SHT31;56029;52.568;13.588;2023-11-18T09:04:29;5.06;96.85
68977;SHT31;56029;52.568;13.588;2023-11-18T09:06:54;4.95;96.64
68977;SHT31;56029;52.568;13.588;2023-11-18T09:09:20;4.96;96.78
68977;SHT31;56029;52.568;13.588;2023-11-18T09:11:46;4.90;96.91
68977;SHT31;56029;52.568;13.588;2023-11-18T09:14:11;4.76;96.43
68977;SHT31;56029;52.568;13.588;2023-11-18T09:16:37;4.83;96.96
68977;SHT31;56029;52.568;13.588;2023-11-18T09:19:03;4.79;97.07
68977;SHT31;56029;52.568;13.588;2023-11-18T09:21:28;4.83;97.38
68977;SHT31;56029;52.568;13.588;2023-11-18T09:23:54;4.75;97.28
68977;SHT31;56029;52.568;13.588;2023-11-18T09:26:19;4.78;97.31
68977;SHT31;56029;52.568;13.588;2023-11-18T09:28:45;4.80;97.16
68977;SHT31;56029;52.568;13.588;2023-11-18T09:31:10;4.83;96.40
68977;SHT31;56029;52.568;13.588;2023-11-18T09:33:36;4.97;95.46
68977;SHT31;56029;52.568;13.588;2023-11-18T09:36:03;5.05;95.41
68977;SHT31;56029;52.568;13.588;2023-11-18T09:38:33;5.07;94.27
68977;SHT31;56029;52.568;13.588;2023-11-18T09:40:59;5.27;94.35
68977;SHT31;56029;52.568;13.588;2023-11-18T09:43:25;5.38;93.77
68977;SHT31;56029;52.568;13.588;2023-11-18T09:46:02;5.48;92.84
68977;SHT31;56029;52.568;13.588;2023-11-18T09:48:29;5.58;92.51
68977;SHT31;56029;52.568;13.588;2023-11-18T09:50:57;5.61;92.41
68977;SHT31;56029;52.568;13.588;2023-11-18T09:53:25;5.85;92.83
68977;SHT31;56029;52.568;13.588;2023-11-18T09:56:03;5.94;91.68
68977;SHT31;56029;52.568;13.588;2023-11-18T09:58:43;5.99;91.09
68977;SHT31;56029;52.568;13.588;2023-11-18T10:01:10;5.95;90.87
68977;SHT31;56029;52.568;13.588;2023-11-18T10:03:37;5.91;91.28
68977;SHT31;56029;52.568;13.588;2023-11-18T10:06:03;5.85;90.90
68977;SHT31;56029;52.568;13.588;2023-11-18T10:08:29;5.86;91.08
68977;SHT31;56029;52.568;13.588;2023-11-18T10:10:55;5.85;91.45
68977;SHT31;56029;52.568;13.588;2023-11-18T10:13:20;5.99;91.21
68977;SHT31;56029;52.568;13.588;2023-11-18T10:15:46;6.12;91.31
68977;SHT31;56029;52.568;13.588;2023-11-18T10:18:11;6.30;91.67
68977;SHT31;56029;52.568;13.588;2023-11-18T10:20:46;6.41;90.51
68977;SHT31;56029;52.568;13.588;2023-11-18T10:23:14;6.45;89.72
68977;SHT31;56029;52.568;13.588;2023-11-18T10:25:53;6.65;89.51
68977;SHT31;56029;52.568;13.588;2023-11-18T10:28:26;6.68;89.20
68977;SHT31;56029;52.568;13.588;2023-11-18T10:30:51;6.82;88.37
68977;SHT31;56029;52.568;13.588;2023-11-18T10:33:17;6.96;88.49
68977;SHT31;56029;52.568;13.588;2023-11-18T10:35:50;7.15;88.65
68977;SHT31;56029;52.568;13.588;2023-11-18T10:38:17;7.34;88.10
68977;SHT31;56029;52.568;13.588;2023-11-18T10:40:42;7.33;86.91
68977;SHT31;56029;52.568;13.588;2023-11-18T10:43:08;7.36;86.14
68977;SHT31;56029;52.568;13.588;2023-11-18T10:45:33;7.47;86.80
68977;SHT31;56029;52.568;13.588;2023-11-18T10:47:59;7.37;86.10
68977;SHT31;56029;52.568;13.588;2023-11-18T10:50:25;7.36;85.81
68977;SHT31;56029;52.568;13.588;2023-11-18T10:52:50;7.15;86.55
68977;SHT31;56029;52.568;13.588;2023-11-18T10:55:16;7.05;86.71
68977;SHT31;56029;52.568;13.588;2023-11-18T10:57:41;7.12;87.01
68977;SHT31;56029;52.568;13.588;2023-11-18T11:00:07;7.12;87.37
68977;SHT31;56029;52.568;13.588;2023-11-18T11:02:33;7.26;86.57
68977;SHT31;56029;52.568;13.588;2023-11-18T11:04:58;7.20;85.93
68977;SHT31;56029;52.568;13.588;2023-11-18T11:07:25;7.02;86.87
68977;SHT31;56029;52.568;13.588;2023-11-18T11:09:51;6.92;86.67
68977;SHT31;56029;52.568;13.588;2023-11-18T11:12:18;6.84;86.88
68977;SHT31;56029;52.568;13.588;2023-11-18T11:14:57;6.89;87.42
68977;SHT31;56029;52.568;13.588;2023-11-18T11:17:24;6.92;86.77
68977;SHT31;56029;52.568;13.588;2023-11-18T11:20:03;6.88;87.10
68977;SHT31;56029;52.568;13.588;2023-11-18T11:22:37;6.82;86.58
68977;SHT31;56029;52.568;13.588;2023-11-18T11:25:11;6.73;87.75
68977;SHT31;56029;52.568;13.588;2023-11-18T11:27:56;6.74;87.51
68977;SHT31;56029;52.568;13.588;2023-11-18T11:30:29;6.68;87.44
68977;SHT31;56029;52.568;13.588;2023-11-18T11:33:23;6.73;87.68
68977;SHT31;56029;52.568;13.588;2023-11-18T11:35:54;6.70;88.03
68977;SHT31;56029;52.568;13.588;2023-11-18T11:38:20;6.64;87.85
68977;SHT31;56029;52.568;13.588;2023-11-18T11:40:46;6.60;87.87
68977;SHT31;56029;52.568;13.588;2023-11-18T11:43:13;6.60;87.87
68977;SHT31;56029;52.568;13.588;2023-11-18T11:45:38;6.55;88.06
68977;SHT31;56029;52.568;13.588;2023-11-18T11:48:04;6.68;89.19
68977;SHT31;56029;52.568;13.588;2023-11-18T11:50:32;6.63;88.21
68977;SHT31;56029;52.568;13.588;2023-11-18T11:53:08;6.73;88.61
68977;SHT31;56029;52.568;13.588;2023-11-18T11:55:41;6.75;88.05
68977;SHT31;56029;52.568;13.588;2023-11-18T11:58:26;6.84;87.69
68977;SHT31;56029;52.568;13.588;2023-11-18T12:00:52;6.89;87.46
68977;SHT31;56029;52.568;13.588;2023-11-18T12:03:17;6.84;87.51
68977;SHT31;56029;52.568;13.588;2023-11-18T12:05:43;6.95;88.03
68977;SHT31;56029;52.568;13.588;2023-11-18T12:08:09;6.99;87.15
68977;SHT31;56029;52.568;13.588;2023-11-18T12:10:35;7.02;87.35
68977;SHT31;56029;52.568;13.588;2023-11-18T12:13:10;6.85;88.52
68977;SHT31;56029;52.568;13.588;2023-11-18T12:15:52;6.68;87.96
68977;SHT31;56029;52.568;13.588;2023-11-18T12:18:18;6.70;88.28
68977;SHT31;56029;52.568;13.588;2023-11-18T12:20:44;6.73;88.64
68977;SHT31;56029;52.568;13.588;2023-11-18T12:23:10;6.68;88.44
68977;SHT31;56029;52.568;13.588;2023-11-18T12:25:35;6.77;88.21
68977;SHT31;56029;52.568;13.588;2023-11-18T12:28:07;6.80;88.30
68977;SHT31;56029;52.568;13.588;2023-11-18T12:33:03;6.84;87.52
68977;SHT31;56029;52.568;13.588;2023-11-18T12:35:29;6.87;88.10
68977;SHT31;56029;52.568;13.588;2023-11-18T12:38:04;6.87;87.66
68977;SHT31;56029;52.568;13.588;2023-11-18T12:40:55;6.94;88.67
68977;SHT31;56029;52.568;13.588;2023-11-18T12:43:49;6.99;89.19
68977;SHT31;56029;52.568;13.588;2023-11-18T12:46:53;6.92;88.47
68977;SHT31;56029;52.568;13.588;2023-11-18T12:49:20;6.87;88.76
68977;SHT31;56029;52.568;13.588;2023-11-18T12:51:47;6.71;88.39
68977;SHT31;56029;52.568;13.588;2023-11-18T12:54:13;6.70;88.27
68977;SHT31;56029;52.568;13.588;2023-11-18T12:56:38;6.57;87.84
68977;SHT31;56029;52.568;13.588;2023-11-18T12:59:05;6.60;88.46
68977;SHT31;56029;52.568;13.588;2023-11-18T13:01:30;6.60;89.25
68977;SHT31;56029;52.568;13.588;2023-11-18T13:03:56;6.67;89.34
68977;SHT31;56029;52.568;13.588;2023-11-18T13:06:21;6.67;88.83
68977;SHT31;56029;52.568;13.588;2023-11-18T13:08:47;6.58;88.33
68977;SHT31;56029;52.568;13.588;2023-11-18T13:11:12;6.54;88.79
68977;SHT31;56029;52.568;13.588;2023-11-18T13:13:38;6.43;88.80
68977;SHT31;56029;52.568;13.588;2023-11-18T13:16:04;6.37;88.95
68977;SHT31;56029;52.568;13.588;2023-11-18T13:18:41;6.40;88.39
68977;SHT31;56029;52.568;13.588;2023-11-18T13:21:07;6.36;88.35
68977;SHT31;56029;52.568;13.588;2023-11-18T13:23:32;6.47;88.33
68977;SHT31;56029;52.568;13.588;2023-11-18T13:25:58;6.43;87.55
68977;SHT31;56029;52.568;13.588;2023-11-18T13:28:24;6.40;87.33
68977;SHT31;56029;52.568;13.588;2023-11-18T13:30:50;6.45;86.97
68977;SHT31;56029;52.568;13.588;2023-11-18T13:33:16;6.54;87.26
68977;SHT31;56029;52.568;13.588;2023-11-18T13:35:42;6.63;86.98
68977;SHT31;56029;52.568;13.588;2023-11-18T13:38:08;6.71;87.53
68977;SHT31;56029;52.568;13.588;2023-11-18T13:40:44;6.77;87.45
68977;SHT31;56029;52.568;13.588;2023-11-18T13:43:09;6.81;86.97
68977;SHT31;56029;52.568;13.588;2023-11-18T13:45:35;6.91;86.77
68977;SHT31;56029;52.568;13.588;2023-11-18T13:48:00;6.82;85.33
68977;SHT31;56029;52.568;13.588;2023-11-18T13:50:26;6.89;85.86
68977;SHT31;56029;52.568;13.588;2023-11-18T13:52:52;6.92;84.59
68977;SHT31;56029;52.568;13.588;2023-11-18T13:55:17;6.92;85.58
68977;SHT31;56029;52.568;13.588;2023-11-18T13:57:43;6.87;85.38
68977;SHT31;56029;52.568;13.588;2023-11-18T14:00:10;6.77;86.43
68977;SHT31;56029;52.568;13.588;2023-11-18T14:02:36;6.65;86.50
68977;SHT31;56029;52.568;13.588;2023-11-18T14:05:01;6.53;87.32
68977;SHT31;56029;52.568;13.588;2023-11-18T14:07:27;6.43;87.43
68977;SHT31;56029;52.568;13.588;2023-11-18T14:09:52;6.33;88.05
68977;SHT31;56029;52.568;13.588;2023-11-18T14:12:18;6.13;88.47
68977;SHT31;56029;52.568;13.588;2023-11-18T14:14:43;5.99;89.44
68977;SHT31;56029;52.568;13.588;2023-11-18T14:17:09;5.86;89.82
68977;SHT31;56029;52.568;13.588;2023-11-18T14:19:35;5.74;90.22
68977;SHT31;56029;52.568;13.588;2023-11-18T14:22:00;5.65;89.99
68977;SHT31;56029;52.568;13.588;2023-11-18T14:24:26;5.51;90.80
68977;SHT31;56029;52.568;13.588;2023-11-18T14:26:51;5.41;91.18
68977;SHT31;56029;52.568;13.588;2023-11-18T14:29:17;5.34;91.24
68977;SHT31;56029;52.568;13.588;2023-11-18T14:31:42;5.24;91.74
68977;SHT31;56029;52.568;13.588;2023-11-18T14:34:09;5.19;91.96
68977;SHT31;56029;52.568;13.588;2023-11-18T14:36:36;5.12;92.13
68977;SHT31;56029;52.568;13.588;2023-11-18T14:39:02;5.06;92.45
68977;SHT31;56029;52.568;13.588;2023-11-18T14:41:27;4.95;92.99
68977;SHT31;56029;52.568;13.588;2023-11-18T14:43:53;4.89;93.15
68977;SHT31;56029;52.568;13.588;2023-11-18T14:46:19;4.80;93.45
68977;SHT31;56029;52.568;13.588;2023-11-18T14:48:44;4.73;94.01
68977;SHT31;56029;52.568;13.588;2023-11-18T14:51:10;4.68;94.18
68977;SHT31;56029;52.568;13.588;2023-11-18T14:53:37;4.61;94.16
68977;SHT31;56029;52.568;13.588;2023-11-18T14:56:03;4.58;94.56
68977;SHT31;56029;52.568;13.588;2023-11-18T14:58:29;4.52;94.77
68977;SHT31;56029;52.568;13.588;2023-11-18T15:00:54;4.44;94.88
68977;SHT31;56029;52.568;13.588;2023-11-18T15:03:20;4.40;95.08
68977;SHT31;56029;52.568;13.588;2023-11-18T15:05:45;4.34;95.31
68977;SHT31;56029;52.568;13.588;2023-11-18T15:08:11;4.34;95.30
68977;SHT31;56029;52.568;13.588;2023-11-18T15:10:36;4.36;95.45
68977;SHT31;56029;52.568;13.588;2023-11-18T15:13:02;4.37;95.46
68977;SHT31;56029;52.568;13.588;2023-11-18T15:15:29;4.34;95.52
68977;SHT31;56029;52.568;13.588;2023-11-18T15:17:55;4.30;95.64
68977;SHT31;56029;52.568;13.588;2023-11-18T15:20:20;4.33;95.77
68977;SHT31;56029;52.568;13.588;2023-11-18T15:22:46;4.33;95.92
68977;SHT31;56029;52.568;13.588;2023-11-18T15:25:12;4.30;96.00
68977;SHT31;56029;52.568;13.588;2023-11-18T15:27:41;4.25;96.01
68977;SHT31;56029;52.568;13.588;2023-11-18T15:30:08;4.24;96.24